LPLALPAZ

Guest
Details From LPLA - LAJES
To LPAZ - SANTA MARIA
Flight Number -
Tags generated
Created
Modified
Stats Distance 142 nm / 263 km
Max Altitude 15,100 ft / 4,602 m
Waypoints 3
Social Downloads 1
Likes 0
Share VATSIM

Download

Looking for another format? Having issues loading an existing format? Contact us
Advertisement - Login to hide

Notes

Basic altitude profile: - Ascent Rate: 2500ft/min - Ascent Speed: 250kts - Cruise Altitude: 35000ft - Cruise Speed: 420kts - Descent Rate: 1500ft/min - Descent Speed: 250kts Options: - Use NATs: no - Use PACOTS: no - Use low airways: yes - Use high airways: no

Route

LPLA MIPRU LPAZ

ID Type Via Altitude Latitude Longitude Leg Dist Tot Dist Heading (true) Name
O LPLA APT - 0 ft / 0 m 38.76441˚ -27.09348˚ - 0 nm - LAJES
MIPRU FIX - 15,100 ft / 4,602 m 38.27361˚ -26.36472˚ 45 nm 45 nm 130° / 131° -
O LPAZ APT - 0 ft / 0 m 36.97273˚ -25.17053˚ 96 nm 141 nm 144° / 144° SANTA MARIA

Altitude Profile

Advertisement - Login to hide

LPLA

Details ICAO LPLA (TER)
Name LAJES
Region Portugal
Timezone Atlantic/Azores (UTC-1.0)
Stats Elevation 180 ft / 55 m (AMSL)
Location 38.764410° -27.093482°
Runways 1
Magnetic Variation 8.934° W

METAR

LPLA 171200Z /////KT 9999 FEW023 19/15 Q1029

Decode

TAF

TAF LPLA 171102Z 1712/1812 19012KT 9999 SCT020 TEMPO 1712/1812 SCT018 BKN028 TEMPO 1806/1812 19018G28KT

Decode

Departure Runways

ID Width Length Bearing (true) Bearing (mag) Surface Threshold Offset Overrun Length
15 197 ft / 60 m 10,869 ft / 3,313 m 140.81° 149.74° Asphalt 0 ft / 0 m 991 ft / 302 m
33 197 ft / 60 m 10,869 ft / 3,313 m 320.82° 329.75° Asphalt 0 ft / 0 m 1,040 ft / 317 m

LPAZ

Details ICAO LPAZ (SMA)
Name SANTA MARIA
Region Portugal
Timezone Atlantic/Azores (UTC-1.0)
Stats Elevation 308 ft / 94 m (AMSL)
Location 36.972732° -25.170532°
Runways 3
Magnetic Variation 8.134° W

METAR

LPAZ 171230Z 01005KT 9999 FEW012 BKN036 18/15 Q1031

Decode

TAF

TAF LPAZ 171100Z 1712/1818 VRB05KT 9999 SCT013 BKN035 BECMG 1712/1715 13008KT TEMPO 1712/1803 SCT018 TEMPO 1803/1812 BKN015 BECMG 1805/1808 16015KT

Decode

Destination Runways

ID Width Length Bearing (true) Bearing (mag) Surface Threshold Offset Overrun Length
04 148 ft / 45 m 4,351 ft / 1,326 m 27.72° 35.85° Asphalt 0 ft / 0 m 210 ft / 64 m
15 148 ft / 45 m 6,061 ft / 1,847 m 135.98° 144.11° Asphalt 0 ft / 0 m 210 ft / 64 m
18 197 ft / 60 m 10,058 ft / 3,066 m 170.97° 179.10° Concrete 0 ft / 0 m 1,000 ft / 305 m
22 148 ft / 45 m 4,351 ft / 1,326 m 207.73° 215.86° Asphalt 0 ft / 0 m 125 ft / 38 m
33 148 ft / 45 m 6,061 ft / 1,847 m 315.99° 324.12° Asphalt 0 ft / 0 m 625 ft / 191 m
36 197 ft / 60 m 10,058 ft / 3,066 m 350.97° 359.10° Concrete 0 ft / 0 m 1,000 ft / 305 m

Approach Navaids

Runway Type Ident Frequency Range Bearing (true) Bearing (mag) Slope Elevation
18 Localiser MA 110.30 MHz 18 nm / 33 km 170.95° 179.08° - 279 ft / 85 m (AMSL)
18 Glidescope MA 110.30 MHz 10 nm / 19 km 170.97° 179.10° 2.75° 284 ft / 87 m (AMSL)

Popular Alternatives